createdAt,value
2018-12-01T00:01:35.756Z,8.90
2018-12-01T00:04:04.518Z,8.45
2018-12-01T00:06:33.520Z,8.20
2018-12-01T00:09:02.382Z,8.78
2018-12-01T00:11:41.100Z,8.85
2018-12-01T00:14:10.373Z,8.93
2018-12-01T00:16:39.315Z,9.65
2018-12-01T00:19:08.208Z,9.60
2018-12-01T00:21:37.183Z,10.60
2018-12-01T00:24:07.278Z,8.93
2018-12-01T00:26:51.210Z,9.85
2018-12-01T00:29:21.009Z,9.80
2018-12-01T00:31:49.863Z,10.03
2018-12-01T00:34:19.541Z,11.25
2018-12-01T00:36:48.499Z,9.98
2018-12-01T00:39:17.646Z,10.85
2018-12-01T00:41:46.480Z,10.82
2018-12-01T00:44:17.289Z,10.13
2018-12-01T00:46:46.425Z,10.80
2018-12-01T00:49:16.282Z,10.20
2018-12-01T00:51:45.189Z,10.13
2018-12-01T00:54:14.102Z,9.95
2018-12-01T00:56:43.482Z,9.50
2018-12-01T00:59:12.807Z,9.23
2018-12-01T01:01:42.160Z,9.20
2018-12-01T01:04:11.382Z,9.40
2018-12-01T01:06:40.351Z,9.70
2018-12-01T01:09:09.681Z,9.53
2018-12-01T01:11:38.943Z,9.98
2018-12-01T01:14:07.770Z,10.32
2018-12-01T01:16:37.915Z,9.95
2018-12-01T01:19:07.795Z,8.85
2018-12-01T01:21:36.664Z,8.68
2018-12-01T01:24:05.844Z,7.80
2018-12-01T01:26:35.831Z,7.65
2018-12-01T01:29:04.916Z,7.55
2018-12-01T01:31:36.331Z,6.83
2018-12-01T01:34:05.477Z,6.60
2018-12-01T01:36:36.568Z,6.97
2018-12-01T01:39:07.303Z,5.95
2018-12-01T01:41:36.346Z,6.80
2018-12-01T01:44:06.288Z,6.45
2018-12-01T01:46:35.756Z,5.75
2018-12-01T01:49:04.730Z,6.12
2018-12-01T01:51:33.902Z,5.50
2018-12-01T01:54:02.806Z,5.60
2018-12-01T01:56:31.667Z,6.65
2018-12-01T01:59:01.190Z,5.67
2018-12-01T02:01:30.129Z,5.80
2018-12-01T02:04:00.038Z,4.95
2018-12-01T02:06:30.246Z,4.00
2018-12-01T02:08:59.225Z,4.67
2018-12-01T02:11:28.833Z,5.30
2018-12-01T02:13:58.498Z,5.50
2018-12-01T02:16:27.908Z,8.35
2018-12-01T02:18:56.985Z,10.15
2018-12-01T02:21:26.721Z,10.38
2018-12-01T02:23:55.860Z,11.45
2018-12-01T02:26:24.749Z,12.07
2018-12-01T02:28:53.519Z,13.93
2018-12-01T02:31:22.448Z,12.43
2018-12-01T02:33:51.368Z,10.90
2018-12-01T02:36:21.027Z,10.55
2018-12-01T02:38:49.944Z,10.80
2018-12-01T02:41:18.904Z,11.97
2018-12-01T02:43:58.862Z,12.00
2018-12-01T02:46:39.288Z,10.30
2018-12-01T02:49:08.527Z,9.55
2018-12-01T02:51:37.618Z,9.43
2018-12-01T02:54:07.862Z,9.00
2018-12-01T02:56:36.742Z,9.05
2018-12-01T02:59:06.438Z,8.80
2018-12-01T03:01:35.302Z,8.73
2018-12-01T03:04:04.898Z,8.15
2018-12-01T03:06:34.207Z,8.10
2018-12-01T03:09:03.419Z,7.47
2018-12-01T03:11:32.362Z,6.80
2018-12-01T03:14:03.885Z,6.33
2018-12-01T03:16:33.948Z,5.83
2018-12-01T03:19:03.100Z,4.60
2018-12-01T03:21:32.040Z,5.40
2018-12-01T03:24:01.902Z,5.30
2018-12-01T03:26:31.231Z,4.80
2018-12-01T03:29:00.183Z,5.20
2018-12-01T03:31:29.291Z,4.60
2018-12-01T03:33:58.435Z,4.12
2018-12-01T03:36:27.281Z,4.50
2018-12-01T03:38:56.063Z,4.20
2018-12-01T03:41:25.060Z,3.92
2018-12-01T03:43:54.491Z,4.60
2018-12-01T03:46:23.260Z,4.05
2018-12-01T03:48:52.142Z,4.40
2018-12-01T03:51:23.125Z,4.92
2018-12-01T03:53:52.088Z,4.97
2018-12-01T03:56:21.172Z,6.47
2018-12-01T03:58:49.955Z,6.55
2018-12-01T04:01:18.857Z,7.12
2018-12-01T04:03:47.652Z,7.40
2018-12-01T04:06:16.515Z,6.72
2018-12-01T04:08:45.804Z,5.90
2018-12-01T04:11:14.803Z,5.78
2018-12-01T04:13:43.579Z,5.75
2018-12-01T04:16:15.889Z,7.17
2018-12-01T04:18:44.617Z,10.93
2018-12-01T04:21:13.396Z,9.10
2018-12-01T04:23:44.139Z,7.17
2018-12-01T04:26:12.952Z,6.08
2018-12-01T04:28:42.033Z,5.53
2018-12-01T04:31:11.872Z,5.90
2018-12-01T04:33:40.624Z,6.92
2018-12-01T04:36:09.483Z,8.03
2018-12-01T04:38:38.986Z,6.87
2018-12-01T04:41:08.018Z,4.25
2018-12-01T04:43:36.875Z,3.90
2018-12-01T04:46:06.617Z,3.80
2018-12-01T04:48:35.420Z,3.20
2018-12-01T04:51:04.335Z,3.72
2018-12-01T04:53:33.056Z,5.50
2018-12-01T04:56:01.913Z,3.70
2018-12-01T04:58:30.876Z,5.65
2018-12-01T05:00:59.798Z,4.70
2018-12-01T05:03:28.551Z,5.35
2018-12-01T05:05:57.323Z,6.42
2018-12-01T05:08:26.187Z,6.90
2018-12-01T05:10:54.958Z,6.55
2018-12-01T05:13:23.766Z,6.50
2018-12-01T05:15:52.858Z,6.37
2018-12-01T05:18:22.019Z,5.58
2018-12-01T05:20:50.933Z,5.37
2018-12-01T05:23:20.146Z,5.60
2018-12-01T05:25:49.066Z,6.42
2018-12-01T05:28:18.304Z,6.25
2018-12-01T05:30:47.191Z,6.67
2018-12-01T05:33:16.084Z,7.22
2018-12-01T05:35:45.570Z,7.17
2018-12-01T05:38:14.625Z,7.78
2018-12-01T05:40:43.791Z,7.62
2018-12-01T05:43:12.713Z,7.67
2018-12-01T05:45:41.791Z,7.60
2018-12-01T05:48:10.551Z,7.95
2018-12-01T05:51:33.747Z,9.18
2018-12-01T05:54:03.426Z,8.30
2018-12-01T05:56:32.458Z,9.40
2018-12-01T05:59:11.446Z,10.60
2018-12-01T06:01:40.166Z,10.60
2018-12-01T06:04:09.272Z,11.50
2018-12-01T06:06:38.408Z,12.63
2018-12-01T06:09:08.827Z,13.60
2018-12-01T06:11:37.761Z,13.65
2018-12-01T06:14:07.036Z,13.48
2018-12-01T06:16:35.866Z,12.58
2018-12-01T06:19:05.539Z,12.63
2018-12-01T06:21:34.726Z,12.53
2018-12-01T06:24:03.854Z,13.00
2018-12-01T06:26:32.723Z,12.47
2018-12-01T06:29:01.824Z,14.30
2018-12-01T06:31:30.615Z,13.50
2018-12-01T06:33:59.884Z,14.30
2018-12-01T06:36:29.379Z,14.80
2018-12-01T06:38:59.223Z,14.20
2018-12-01T06:41:28.022Z,13.50
2018-12-01T06:44:09.626Z,13.78
2018-12-01T06:46:38.656Z,13.90
2018-12-01T06:49:07.506Z,13.08
2018-12-01T06:51:37.052Z,14.45
2018-12-01T06:54:05.968Z,13.58
2018-12-01T06:56:35.603Z,12.05
2018-12-01T06:59:04.406Z,14.60
2018-12-01T07:01:33.639Z,11.95
2018-12-01T07:04:02.674Z,11.15
2018-12-01T07:06:31.492Z,10.60
2018-12-01T07:09:01.628Z,9.48
2018-12-01T07:11:30.562Z,9.40
2018-12-01T07:14:00.036Z,9.20
2018-12-01T07:16:29.308Z,9.58
2018-12-01T07:19:09.249Z,9.30
2018-12-01T07:21:38.603Z,10.00
2018-12-01T07:24:07.462Z,9.43
2018-12-01T07:26:36.947Z,9.60
2018-12-01T07:32:01.662Z,10.55
2018-12-01T07:34:48.398Z,10.75
2018-12-01T07:37:17.199Z,12.43
2018-12-01T07:39:49.193Z,11.03
2018-12-01T07:42:18.800Z,11.00
2018-12-01T07:44:49.873Z,10.05
2018-12-01T07:47:18.612Z,10.10
2018-12-01T07:49:47.624Z,11.03
2018-12-01T07:52:16.447Z,10.58
2018-12-01T07:54:45.474Z,12.00
2018-12-01T07:57:14.872Z,11.33
2018-12-01T07:59:43.211Z,10.90
2018-12-01T08:02:11.979Z,10.23
2018-12-01T08:04:40.958Z,12.25
2018-12-01T08:07:10.894Z,12.50
2018-12-01T08:09:42.056Z,13.93
2018-12-01T08:12:10.947Z,14.10
2018-12-01T08:14:39.827Z,14.53
2018-12-01T08:17:08.698Z,11.00
2018-12-01T08:19:37.418Z,12.00
2018-12-01T08:22:06.612Z,10.85
2018-12-01T08:24:35.798Z,9.23
2018-12-01T08:27:04.842Z,11.18
2018-12-01T08:29:33.614Z,14.38
2018-12-01T08:32:02.507Z,9.55
2018-12-01T08:34:33.042Z,4.62
2018-12-01T08:37:02.001Z,4.58
2018-12-01T08:39:31.005Z,3.70
2018-12-01T08:41:59.760Z,3.30
2018-12-01T08:44:28.901Z,4.90
2018-12-01T08:46:57.611Z,5.63
2018-12-01T08:49:26.619Z,6.20
2018-12-01T08:51:55.318Z,5.63
2018-12-01T08:54:24.778Z,6.10
2018-12-01T08:56:53.536Z,10.20
2018-12-01T08:59:22.282Z,8.13
2018-12-01T09:01:51.738Z,7.07
2018-12-01T09:04:21.097Z,6.50
2018-12-01T09:06:50.152Z,7.10
2018-12-01T09:09:21.049Z,7.70
2018-12-01T09:11:52.158Z,7.83
2018-12-01T09:14:21.275Z,7.93
2018-12-01T09:16:50.015Z,7.30
2018-12-01T09:19:19.081Z,6.67
2018-12-01T09:21:47.916Z,7.10
2018-12-01T09:24:16.760Z,6.00
2018-12-01T09:26:45.520Z,6.17
2018-12-01T09:29:14.992Z,6.03
2018-12-01T09:31:43.806Z,5.70
2018-12-01T09:34:13.211Z,5.27
2018-12-01T09:36:41.989Z,5.67
2018-12-01T09:39:10.735Z,5.50
2018-12-01T09:41:39.887Z,5.10
2018-12-01T09:44:08.629Z,4.80
2018-12-01T09:46:37.578Z,5.03
2018-12-01T09:49:06.801Z,5.10
2018-12-01T09:51:35.558Z,4.70
2018-12-01T09:54:04.651Z,4.80
2018-12-01T09:56:33.515Z,5.20
2018-12-01T09:59:02.226Z,6.90
2018-12-01T10:01:31.114Z,10.87
2018-12-01T10:04:00.186Z,4.70
2018-12-01T10:06:29.009Z,4.80
2018-12-01T10:08:58.232Z,4.73
2018-12-01T10:11:27.239Z,4.90
2018-12-01T10:13:56.051Z,4.30
2018-12-01T10:16:24.975Z,4.30
2018-12-01T10:18:56.493Z,5.37
2018-12-01T10:21:22.755Z,5.50
2018-12-01T10:23:51.616Z,5.40
2018-12-01T10:26:20.556Z,4.80
2018-12-01T10:28:49.360Z,3.90
2018-12-01T10:34:16.928Z,4.93
2018-12-01T10:36:45.883Z,4.83
2018-12-01T10:39:14.780Z,4.80
2018-12-01T10:41:43.592Z,5.10
2018-12-01T10:44:12.398Z,5.60
2018-12-01T10:46:47.885Z,5.77
2018-12-01T10:49:22.940Z,5.63
2018-12-01T10:51:51.707Z,6.17
2018-12-01T10:54:20.916Z,6.30
2018-12-01T10:56:49.887Z,6.80
2018-12-01T10:59:18.691Z,6.70
2018-12-01T11:02:06.547Z,7.27
2018-12-01T11:04:38.480Z,6.93
2018-12-01T11:07:07.809Z,6.40
2018-12-01T11:09:36.831Z,6.90
2018-12-01T11:12:05.865Z,5.83
2018-12-01T11:14:34.719Z,5.93
2018-12-01T11:17:05.664Z,6.60
2018-12-01T11:19:34.955Z,6.53
2018-12-01T11:22:04.020Z,6.50
2018-12-01T11:24:32.963Z,6.50
2018-12-01T11:27:02.546Z,7.10
2018-12-01T11:29:31.735Z,6.73
2018-12-01T11:32:00.598Z,7.63
2018-12-01T11:34:29.448Z,9.60
2018-12-01T11:36:58.476Z,7.10
2018-12-01T11:39:27.355Z,7.60
2018-12-01T11:41:56.199Z,6.13
2018-12-01T11:44:25.203Z,6.72
2018-12-01T11:46:54.395Z,6.40
2018-12-01T11:49:23.286Z,5.20
2018-12-01T11:51:52.138Z,5.40
2018-12-01T11:54:21.100Z,5.20
2018-12-01T11:56:49.961Z,5.67
2018-12-01T11:59:19.546Z,5.37
2018-12-01T12:01:54.166Z,6.00
2018-12-01T12:04:23.048Z,7.37
2018-12-01T12:06:51.956Z,5.87
2018-12-01T12:09:20.843Z,5.50
2018-12-01T12:11:49.694Z,5.30
2018-12-01T12:14:18.728Z,5.30
2018-12-01T12:16:47.927Z,9.00
2018-12-01T12:19:17.147Z,5.20
2018-12-01T12:21:46.201Z,5.37
2018-12-01T12:24:15.139Z,5.40
2018-12-01T12:26:43.967Z,5.17
2018-12-01T12:29:12.928Z,5.40
2018-12-01T12:31:41.790Z,5.23
2018-12-01T12:34:10.662Z,4.77
2018-12-01T12:36:39.610Z,4.73
2018-12-01T12:39:08.416Z,4.60
2018-12-01T12:41:37.242Z,3.80
2018-12-01T12:44:06.433Z,3.57
2018-12-01T12:46:35.405Z,3.53
2018-12-01T12:49:04.173Z,4.33
2018-12-01T12:51:33.188Z,5.50
2018-12-01T12:54:02.115Z,3.57
2018-12-01T12:56:31.529Z,3.73
2018-12-01T12:59:00.530Z,4.47
2018-12-01T13:01:29.310Z,5.30
2018-12-01T13:03:58.324Z,3.07
2018-12-01T13:06:27.326Z,4.43
2018-12-01T13:08:56.225Z,2.70
2018-12-01T13:11:25.068Z,2.87
2018-12-01T13:13:54.071Z,3.03
2018-12-01T13:16:23.633Z,2.77
2018-12-01T13:18:52.547Z,3.20
2018-12-01T13:21:21.670Z,2.90
2018-12-01T13:23:50.632Z,3.83
2018-12-01T13:26:20.428Z,3.23
2018-12-01T13:28:49.700Z,3.60
2018-12-01T13:31:18.718Z,3.60
2018-12-01T13:33:47.707Z,3.53
2018-12-01T13:36:16.722Z,4.40
2018-12-01T13:38:45.697Z,7.00
2018-12-01T13:41:14.706Z,5.40
2018-12-01T13:44:06.648Z,3.83
2018-12-01T13:46:38.169Z,4.00
2018-12-01T13:49:24.339Z,2.73
2018-12-01T13:51:56.853Z,3.53
2018-12-01T13:54:29.120Z,3.20
2018-12-01T13:56:57.989Z,3.50
2018-12-01T13:59:26.962Z,3.00
2018-12-01T14:01:56.196Z,3.17
2018-12-01T14:04:25.269Z,4.03
2018-12-01T14:06:55.917Z,2.80
2018-12-01T14:09:24.832Z,3.00
2018-12-01T14:11:54.074Z,3.17
2018-12-01T14:14:22.902Z,2.97
2018-12-01T14:16:52.040Z,2.83
2018-12-01T14:19:20.853Z,3.10
2018-12-01T14:21:49.915Z,2.50
2018-12-01T14:24:18.761Z,6.77
2018-12-01T14:26:47.647Z,3.73
2018-12-01T14:29:16.601Z,2.60
2018-12-01T14:31:46.357Z,3.73
2018-12-01T14:34:15.275Z,2.40
2018-12-01T14:36:44.092Z,3.00
2018-12-01T14:39:13.642Z,2.33
2018-12-01T14:41:42.507Z,2.63
2018-12-01T14:44:11.963Z,2.90
2018-12-01T14:46:41.152Z,2.40
2018-12-01T14:49:10.326Z,2.90
2018-12-01T14:51:39.771Z,3.70
2018-12-01T14:54:08.845Z,2.90
2018-12-01T14:56:37.798Z,2.65
2018-12-01T14:59:07.913Z,2.87
2018-12-01T15:01:37.080Z,3.20
2018-12-01T15:04:06.897Z,2.80
2018-12-01T15:06:35.877Z,2.63
2018-12-01T15:09:07.039Z,2.30
2018-12-01T15:11:36.613Z,2.60
2018-12-01T15:14:05.583Z,2.60
2018-12-01T15:16:34.883Z,2.50
2018-12-01T15:19:05.278Z,4.40
2018-12-01T15:21:34.175Z,4.33
2018-12-01T15:24:03.619Z,5.35
2018-12-01T15:26:33.086Z,6.20
2018-12-01T15:29:02.121Z,5.47
2018-12-01T15:31:31.099Z,4.20
2018-12-01T15:34:01.869Z,5.80
2018-12-01T15:36:30.619Z,8.30
2018-12-01T15:38:59.682Z,8.95
2018-12-01T15:41:28.522Z,4.85
2018-12-01T15:43:57.793Z,6.15
2018-12-01T15:46:26.607Z,7.70
2018-12-01T15:48:55.468Z,7.47
2018-12-01T15:51:24.350Z,8.25
2018-12-01T15:53:53.754Z,5.12
2018-12-01T15:56:25.985Z,4.15
2018-12-01T15:58:55.448Z,5.95
2018-12-01T16:01:24.304Z,4.25
2018-12-01T16:03:53.234Z,2.95
2018-12-01T16:06:22.147Z,3.40
2018-12-01T16:08:51.068Z,3.50
2018-12-01T16:11:21.383Z,4.47
2018-12-01T16:14:00.143Z,4.58
2018-12-01T16:16:30.798Z,4.87
2018-12-01T16:18:59.996Z,14.23
2018-12-01T16:21:30.532Z,9.73
2018-12-01T16:24:03.357Z,6.97
2018-12-01T16:26:32.865Z,6.20
2018-12-01T16:29:02.749Z,7.33
2018-12-01T16:31:33.650Z,7.80
2018-12-01T16:34:02.964Z,6.20
2018-12-01T16:36:33.777Z,6.62
2018-12-01T16:39:03.494Z,5.55
2018-12-01T16:41:34.679Z,5.20
2018-12-01T16:44:03.893Z,5.85
2018-12-01T16:46:32.786Z,4.85
2018-12-01T16:49:01.887Z,5.30
2018-12-01T16:51:31.475Z,5.60
2018-12-01T16:54:00.656Z,7.50
2018-12-01T16:56:29.547Z,4.67
2018-12-01T16:58:59.199Z,4.92
2018-12-01T17:01:28.096Z,7.50
2018-12-01T17:03:56.902Z,6.85
2018-12-01T17:06:26.980Z,6.35
2018-12-01T17:08:56.844Z,6.70
2018-12-01T17:11:26.179Z,6.20
2018-12-01T17:13:56.704Z,5.12
2018-12-01T17:16:25.859Z,5.37
2018-12-01T17:18:54.715Z,6.60
2018-12-01T17:21:24.345Z,4.12
2018-12-01T17:23:53.393Z,4.33
2018-12-01T17:26:22.486Z,4.05
2018-12-01T17:28:51.432Z,4.28
2018-12-01T17:31:24.258Z,3.80
2018-12-01T17:33:53.140Z,7.20
2018-12-01T17:36:22.011Z,4.80
2018-12-01T17:38:50.826Z,4.90
2018-12-01T17:41:24.723Z,4.20
2018-12-01T17:43:57.244Z,3.98
2018-12-01T17:46:26.062Z,5.10
2018-12-01T17:48:55.734Z,7.75
2018-12-01T17:51:25.182Z,3.80
2018-12-01T17:53:57.657Z,3.77
2018-12-01T17:56:26.528Z,4.20
2018-12-01T17:58:55.715Z,4.62
2018-12-01T18:01:24.560Z,4.10
2018-12-01T18:03:53.519Z,4.85
2018-12-01T18:06:22.423Z,5.72
2018-12-01T18:08:53.120Z,5.58
2018-12-01T18:11:29.507Z,6.37
2018-12-01T18:13:54.240Z,4.53
2018-12-01T18:16:23.194Z,4.30
2018-12-01T18:18:52.428Z,5.50
2018-12-01T18:21:21.259Z,4.20
2018-12-01T18:23:50.067Z,4.62
2018-12-01T18:26:18.928Z,4.17
2018-12-01T18:28:49.701Z,4.33
2018-12-01T18:31:26.956Z,5.10
2018-12-01T18:34:15.154Z,4.47
2018-12-01T18:36:43.996Z,4.00
2018-12-01T18:39:17.623Z,3.75
2018-12-01T18:41:47.352Z,3.15
2018-12-01T18:44:16.282Z,3.30
2018-12-01T18:46:45.781Z,3.10
2018-12-01T18:49:14.674Z,3.58
2018-12-01T18:51:43.564Z,3.80
2018-12-01T18:54:12.434Z,4.00
2018-12-01T18:56:41.640Z,4.05
2018-12-01T18:59:12.451Z,3.95
2018-12-01T19:01:41.407Z,6.10
2018-12-01T19:04:10.300Z,8.93
2018-12-01T19:06:40.750Z,4.12
2018-12-01T19:09:09.616Z,3.85
2018-12-01T19:11:56.185Z,3.22
2018-12-01T19:14:25.016Z,3.90
2018-12-01T19:16:54.705Z,9.30
2018-12-01T19:19:23.475Z,8.10
2018-12-01T19:21:56.975Z,7.85
2018-12-01T19:24:25.834Z,27.85
2018-12-01T19:26:54.615Z,10.05
2018-12-01T19:29:24.283Z,9.48
2018-12-01T19:31:53.123Z,8.50
2018-12-01T19:34:22.024Z,5.05
2018-12-01T19:36:50.928Z,3.40
2018-12-01T19:39:20.512Z,3.45
2018-12-01T19:41:49.477Z,3.92
2018-12-01T19:44:22.130Z,3.27
2018-12-01T19:46:51.030Z,4.05
2018-12-01T19:49:20.371Z,3.50
2018-12-01T19:51:50.061Z,3.80
2018-12-01T19:54:21.599Z,4.17
2018-12-01T19:56:55.509Z,3.72
2018-12-01T19:59:25.187Z,4.58
2018-12-01T20:01:54.101Z,16.62
2018-12-01T20:04:22.940Z,16.60
2018-12-01T20:06:51.936Z,15.88
2018-12-01T20:09:21.203Z,26.10
2018-12-01T20:11:50.065Z,9.30
2018-12-01T20:14:19.004Z,14.10
2018-12-01T20:16:50.722Z,21.45
2018-12-01T20:19:19.941Z,14.60
2018-12-01T20:21:48.819Z,15.60
2018-12-01T20:24:18.019Z,13.20
2018-12-01T20:26:46.826Z,18.23
2018-12-01T20:29:15.783Z,21.65
2018-12-01T20:31:44.595Z,16.57
2018-12-01T20:34:13.383Z,14.45
2018-12-01T20:36:49.827Z,7.00
2018-12-01T20:39:21.978Z,5.83
2018-12-01T20:41:50.845Z,4.60
2018-12-01T20:44:19.604Z,4.20
2018-12-01T20:46:48.448Z,4.22
2018-12-01T20:49:17.425Z,4.10
2018-12-01T20:51:46.528Z,4.45
2018-12-01T20:54:35.169Z,6.40
2018-12-01T20:57:22.996Z,8.15
2018-12-01T20:59:51.921Z,13.28
2018-12-01T21:02:21.496Z,8.55
2018-12-01T21:04:50.780Z,12.35
2018-12-01T21:07:19.751Z,12.43
2018-12-01T21:09:48.581Z,12.43
2018-12-01T21:15:12.156Z,7.60
2018-12-01T21:17:42.468Z,14.65
2018-12-01T21:20:13.511Z,10.20
2018-12-01T21:22:50.467Z,13.22
2018-12-01T21:25:24.843Z,10.98
2018-12-01T21:27:54.609Z,12.20
2018-12-01T21:30:25.220Z,12.30
2018-12-01T21:34:00.235Z,12.03
2018-12-01T21:36:29.253Z,15.00
2018-12-01T21:38:58.748Z,12.47
2018-12-01T21:41:27.888Z,12.73
2018-12-01T21:43:56.868Z,12.00
2018-12-01T21:46:26.091Z,19.77
2018-12-01T21:48:54.986Z,20.45
2018-12-01T21:51:23.839Z,16.97
2018-12-01T21:53:52.731Z,14.68
2018-12-01T21:56:21.907Z,18.87
2018-12-01T21:58:53.122Z,19.00
2018-12-01T22:01:22.077Z,22.42
2018-12-01T22:03:51.713Z,21.45
2018-12-01T22:06:20.565Z,12.40
2018-12-01T22:08:50.392Z,6.47
2018-12-01T22:11:19.199Z,5.30
2018-12-01T22:13:48.079Z,7.42
2018-12-01T22:16:17.002Z,5.10
2018-12-01T22:18:46.800Z,5.40
2018-12-01T22:21:17.582Z,6.30
2018-12-01T22:23:46.364Z,4.97
2018-12-01T22:26:15.284Z,8.13
2018-12-01T22:28:44.151Z,4.55
2018-12-01T22:31:13.295Z,4.37
2018-12-01T22:33:42.252Z,5.20
2018-12-01T22:36:12.406Z,4.28
2018-12-01T22:38:41.600Z,3.62
2018-12-01T22:41:11.502Z,4.00
2018-12-01T22:43:42.105Z,3.62
2018-12-01T22:46:10.961Z,3.50
2018-12-01T22:48:40.557Z,3.58
2018-12-01T22:51:09.400Z,3.72
2018-12-01T22:53:38.401Z,3.52
2018-12-01T22:56:07.970Z,3.70
2018-12-01T22:58:36.852Z,3.90
2018-12-01T23:01:06.053Z,3.45
2018-12-01T23:03:37.579Z,3.45
2018-12-01T23:06:09.744Z,5.15
2018-12-01T23:08:38.895Z,4.08
2018-12-01T23:11:08.698Z,6.40
2018-12-01T23:13:37.919Z,7.40
2018-12-01T23:16:11.156Z,3.70
2018-12-01T23:18:40.010Z,3.25
2018-12-01T23:21:09.190Z,4.15
2018-12-01T23:23:38.160Z,3.77
2018-12-01T23:26:07.024Z,5.40
2018-12-01T23:28:36.547Z,3.25
2018-12-01T23:31:05.625Z,3.70
2018-12-01T23:33:34.456Z,4.25
2018-12-01T23:36:03.524Z,3.75
2018-12-01T23:38:32.545Z,3.65
2018-12-01T23:41:05.589Z,3.85
2018-12-01T23:43:34.298Z,4.22
2018-12-01T23:46:04.163Z,4.70
2018-12-01T23:48:33.372Z,4.92
2018-12-01T23:51:02.451Z,5.33
2018-12-01T23:53:31.174Z,5.70
2018-12-01T23:56:00.046Z,6.25
2018-12-01T23:58:29.141Z,7.50
